sensor_id;sensor_type;location;lat;lon;timestamp;P1;durP1;ratioP1;P2;durP2;ratioP2
53674;SDS011;39574;50.534;8.500;2023-03-23T00:03:57;2.5;;;1.0;;
53674;SDS011;39574;50.534;8.500;2023-03-23T00:08:58;2.8;;;1.0;;
53674;SDS011;39574;50.534;8.500;2023-03-23T00:13:55;2.4;;;0.9;;
53674;SDS011;39574;50.534;8.500;2023-03-23T00:18:54;2.2;;;0.9;;
53674;SDS011;39574;50.534;8.500;2023-03-23T00:23:53;2.1;;;0.8;;
53674;SDS011;39574;50.534;8.500;2023-03-23T00:28:52;2.6;;;0.9;;
53674;SDS011;39574;50.534;8.500;2023-03-23T00:33:51;2.7;;;1.0;;
53674;SDS011;39574;50.534;8.500;2023-03-23T00:38:51;2.7;;;1.1;;
53674;SDS011;39574;50.534;8.500;2023-03-23T00:43:50;3.2;;;1.1;;
53674;SDS011;39574;50.534;8.500;2023-03-23T00:48:50;3.1;;;1.1;;
53674;SDS011;39574;50.534;8.500;2023-03-23T00:53:48;3.0;;;1.1;;
53674;SDS011;39574;50.534;8.500;2023-03-23T00:58:47;3.7;;;1.1;;
53674;SDS011;39574;50.534;8.500;2023-03-23T01:03:46;3.9;;;1.1;;
53674;SDS011;39574;50.534;8.500;2023-03-23T01:08:45;3.4;;;1.1;;
53674;SDS011;39574;50.534;8.500;2023-03-23T01:13:44;2.5;;;1.0;;
53674;SDS011;39574;50.534;8.500;2023-03-23T01:18:43;2.9;;;1.1;;
53674;SDS011;39574;50.534;8.500;2023-03-23T01:23:42;2.7;;;1.1;;
53674;SDS011;39574;50.534;8.500;2023-03-23T01:28:42;3.5;;;1.2;;
53674;SDS011;39574;50.534;8.500;2023-03-23T01:33:41;3.6;;;1.3;;
53674;SDS011;39574;50.534;8.500;2023-03-23T01:38:41;3.3;;;1.2;;
53674;SDS011;39574;50.534;8.500;2023-03-23T01:43:53;3.0;;;1.1;;
53674;SDS011;39574;50.534;8.500;2023-03-23T01:48:38;2.4;;;1.0;;
53674;SDS011;39574;50.534;8.500;2023-03-23T01:53:38;2.5;;;0.9;;
53674;SDS011;39574;50.534;8.500;2023-03-23T01:58:39;2.6;;;0.9;;
53674;SDS011;39574;50.534;8.500;2023-03-23T02:03:35;2.6;;;1.0;;
53674;SDS011;39574;50.534;8.500;2023-03-23T02:08:34;2.4;;;1.0;;
53674;SDS011;39574;50.534;8.500;2023-03-23T02:13:33;2.2;;;1.0;;
53674;SDS011;39574;50.534;8.500;2023-03-23T02:18:35;1.9;;;1.0;;
53674;SDS011;39574;50.534;8.500;2023-03-23T02:24:09;2.0;;;0.9;;
53674;SDS011;39574;50.534;8.500;2023-03-23T02:28:33;2.2;;;0.9;;
53674;SDS011;39574;50.534;8.500;2023-03-23T02:33:33;2.1;;;1.0;;
53674;SDS011;39574;50.534;8.500;2023-03-23T02:38:30;2.1;;;1.0;;
53674;SDS011;39574;50.534;8.500;2023-03-23T02:43:31;2.0;;;1.0;;
53674;SDS011;39574;50.534;8.500;2023-03-23T02:48:28;2.1;;;1.1;;
53674;SDS011;39574;50.534;8.500;2023-03-23T02:53:27;2.8;;;1.2;;
53674;SDS011;39574;50.534;8.500;2023-03-23T02:58:24;2.5;;;1.1;;
53674;SDS011;39574;50.534;8.500;2023-03-23T03:03:25;2.4;;;1.1;;
53674;SDS011;39574;50.534;8.500;2023-03-23T03:08:23;2.1;;;1.0;;
53674;SDS011;39574;50.534;8.500;2023-03-23T03:13:25;1.9;;;1.0;;
53674;SDS011;39574;50.534;8.500;2023-03-23T03:18:21;2.4;;;1.0;;
53674;SDS011;39574;50.534;8.500;2023-03-23T03:23:22;2.7;;;1.0;;
53674;SDS011;39574;50.534;8.500;2023-03-23T03:28:19;2.6;;;0.9;;
53674;SDS011;39574;50.534;8.500;2023-03-23T03:33:17;2.8;;;0.9;;
53674;SDS011;39574;50.534;8.500;2023-03-23T03:38:17;2.5;;;1.0;;
53674;SDS011;39574;50.534;8.500;2023-03-23T03:43:16;2.3;;;1.0;;
53674;SDS011;39574;50.534;8.500;2023-03-23T03:48:15;2.5;;;1.0;;
53674;SDS011;39574;50.534;8.500;2023-03-23T03:53:14;2.7;;;1.1;;
53674;SDS011;39574;50.534;8.500;2023-03-23T03:58:13;3.1;;;1.3;;
53674;SDS011;39574;50.534;8.500;2023-03-23T04:03:12;3.2;;;1.8;;
53674;SDS011;39574;50.534;8.500;2023-03-23T04:08:11;4.5;;;2.6;;
53674;SDS011;39574;50.534;8.500;2023-03-23T04:13:11;4.9;;;3.4;;
53674;SDS011;39574;50.534;8.500;2023-03-23T04:18:09;5.0;;;3.5;;
53674;SDS011;39574;50.534;8.500;2023-03-23T04:23:08;4.3;;;2.7;;
53674;SDS011;39574;50.534;8.500;2023-03-23T04:28:07;3.5;;;2.3;;
53674;SDS011;39574;50.534;8.500;2023-03-23T04:33:06;3.2;;;2.0;;
53674;SDS011;39574;50.534;8.500;2023-03-23T04:38:05;3.6;;;1.9;;
53674;SDS011;39574;50.534;8.500;2023-03-23T04:43:05;3.3;;;1.7;;
53674;SDS011;39574;50.534;8.500;2023-03-23T04:48:05;3.0;;;1.5;;
53674;SDS011;39574;50.534;8.500;2023-03-23T04:53:03;2.8;;;1.4;;
53674;SDS011;39574;50.534;8.500;2023-03-23T04:58:02;2.8;;;1.3;;
53674;SDS011;39574;50.534;8.500;2023-03-23T05:03:01;3.4;;;1.3;;
53674;SDS011;39574;50.534;8.500;2023-03-23T05:08:00;3.6;;;1.5;;
53674;SDS011;39574;50.534;8.500;2023-03-23T05:12:59;3.8;;;1.5;;
53674;SDS011;39574;50.534;8.500;2023-03-23T05:17:58;4.7;;;1.6;;
53674;SDS011;39574;50.534;8.500;2023-03-23T05:22:57;4.7;;;1.6;;
53674;SDS011;39574;50.534;8.500;2023-03-23T05:27:56;4.3;;;1.5;;
53674;SDS011;39574;50.534;8.500;2023-03-23T05:32:55;3.7;;;1.4;;
53674;SDS011;39574;50.534;8.500;2023-03-23T05:37:54;3.1;;;1.3;;
53674;SDS011;39574;50.534;8.500;2023-03-23T05:42:53;2.8;;;1.3;;
53674;SDS011;39574;50.534;8.500;2023-03-23T05:47:52;3.3;;;1.6;;
53674;SDS011;39574;50.534;8.500;2023-03-23T05:52:51;3.5;;;1.6;;
53674;SDS011;39574;50.534;8.500;2023-03-23T05:57:51;3.7;;;1.6;;
53674;SDS011;39574;50.534;8.500;2023-03-23T06:02:50;3.3;;;1.5;;
53674;SDS011;39574;50.534;8.500;2023-03-23T06:07:49;2.8;;;1.4;;
53674;SDS011;39574;50.534;8.500;2023-03-23T06:12:48;2.7;;;1.4;;
53674;SDS011;39574;50.534;8.500;2023-03-23T06:17:47;2.7;;;1.4;;
53674;SDS011;39574;50.534;8.500;2023-03-23T06:22:46;2.4;;;1.3;;
53674;SDS011;39574;50.534;8.500;2023-03-23T06:27:45;2.6;;;1.2;;
53674;SDS011;39574;50.534;8.500;2023-03-23T06:32:44;2.6;;;1.2;;
53674;SDS011;39574;50.534;8.500;2023-03-23T06:37:43;2.7;;;1.3;;
53674;SDS011;39574;50.534;8.500;2023-03-23T06:42:42;2.8;;;1.5;;
53674;SDS011;39574;50.534;8.500;2023-03-23T06:47:41;3.4;;;1.9;;
53674;SDS011;39574;50.534;8.500;2023-03-23T06:52:40;3.7;;;2.0;;
53674;SDS011;39574;50.534;8.500;2023-03-23T06:57:39;3.5;;;2.0;;
53674;SDS011;39574;50.534;8.500;2023-03-23T07:02:39;3.0;;;1.7;;
53674;SDS011;39574;50.534;8.500;2023-03-23T07:07:38;2.8;;;1.6;;
53674;SDS011;39574;50.534;8.500;2023-03-23T07:12:37;2.5;;;1.4;;
53674;SDS011;39574;50.534;8.500;2023-03-23T07:17:36;2.6;;;1.4;;
53674;SDS011;39574;50.534;8.500;2023-03-23T07:22:35;2.2;;;1.2;;
53674;SDS011;39574;50.534;8.500;2023-03-23T07:27:34;2.6;;;1.2;;
53674;SDS011;39574;50.534;8.500;2023-03-23T07:32:33;2.8;;;1.2;;
53674;SDS011;39574;50.534;8.500;2023-03-23T07:37:32;2.9;;;1.2;;
53674;SDS011;39574;50.534;8.500;2023-03-23T07:42:31;2.7;;;1.2;;
53674;SDS011;39574;50.534;8.500;2023-03-23T07:47:30;2.5;;;1.1;;
53674;SDS011;39574;50.534;8.500;2023-03-23T07:52:29;2.6;;;1.1;;
53674;SDS011;39574;50.534;8.500;2023-03-23T07:57:29;2.8;;;1.1;;
53674;SDS011;39574;50.534;8.500;2023-03-23T08:02:28;2.8;;;1.1;;
53674;SDS011;39574;50.534;8.500;2023-03-23T08:07:27;2.8;;;1.1;;
53674;SDS011;39574;50.534;8.500;2023-03-23T08:12:26;3.0;;;1.3;;
53674;SDS011;39574;50.534;8.500;2023-03-23T08:17:25;3.1;;;1.3;;
53674;SDS011;39574;50.534;8.500;2023-03-23T08:22:24;3.1;;;1.3;;
53674;SDS011;39574;50.534;8.500;2023-03-23T08:27:23;2.5;;;1.1;;
53674;SDS011;39574;50.534;8.500;2023-03-23T08:32:22;2.4;;;1.0;;
53674;SDS011;39574;50.534;8.500;2023-03-23T08:37:21;2.4;;;1.0;;
53674;SDS011;39574;50.534;8.500;2023-03-23T08:42:21;3.0;;;1.0;;
53674;SDS011;39574;50.534;8.500;2023-03-23T08:47:20;3.0;;;1.0;;
53674;SDS011;39574;50.534;8.500;2023-03-23T08:52:19;3.0;;;1.2;;
53674;SDS011;39574;50.534;8.500;2023-03-23T08:57:18;3.4;;;1.4;;
53674;SDS011;39574;50.534;8.500;2023-03-23T09:02:17;3.3;;;1.3;;
53674;SDS011;39574;50.534;8.500;2023-03-23T09:07:16;3.5;;;1.2;;
53674;SDS011;39574;50.534;8.500;2023-03-23T09:12:15;3.6;;;1.1;;
53674;SDS011;39574;50.534;8.500;2023-03-23T09:17:14;3.3;;;1.1;;
53674;SDS011;39574;50.534;8.500;2023-03-23T09:22:14;3.0;;;1.1;;
53674;SDS011;39574;50.534;8.500;2023-03-23T09:27:13;3.0;;;1.5;;
53674;SDS011;39574;50.534;8.500;2023-03-23T09:32:12;3.1;;;1.7;;
53674;SDS011;39574;50.534;8.500;2023-03-23T09:37:13;3.0;;;1.5;;
53674;SDS011;39574;50.534;8.500;2023-03-23T09:42:13;2.7;;;1.3;;
53674;SDS011;39574;50.534;8.500;2023-03-23T09:47:10;3.3;;;1.1;;
53674;SDS011;39574;50.534;8.500;2023-03-23T09:52:10;2.8;;;1.0;;
53674;SDS011;39574;50.534;8.500;2023-03-23T09:57:11;2.8;;;1.0;;
53674;SDS011;39574;50.534;8.500;2023-03-23T10:02:10;2.7;;;1.1;;
53674;SDS011;39574;50.534;8.500;2023-03-23T10:07:09;2.6;;;1.1;;
53674;SDS011;39574;50.534;8.500;2023-03-23T10:12:09;3.4;;;1.6;;
53674;SDS011;39574;50.534;8.500;2023-03-23T10:17:16;3.0;;;1.4;;
53674;SDS011;39574;50.534;8.500;2023-03-23T10:22:04;2.7;;;1.2;;
53674;SDS011;39574;50.534;8.500;2023-03-23T10:27:05;2.5;;;1.1;;
53674;SDS011;39574;50.534;8.500;2023-03-23T10:32:02;2.6;;;0.9;;
53674;SDS011;39574;50.534;8.500;2023-03-23T10:37:03;2.4;;;1.0;;
53674;SDS011;39574;50.534;8.500;2023-03-23T10:42:00;2.6;;;1.0;;
53674;SDS011;39574;50.534;8.500;2023-03-23T10:47:00;2.5;;;1.0;;
53674;SDS011;39574;50.534;8.500;2023-03-23T10:52:00;2.5;;;0.9;;
53674;SDS011;39574;50.534;8.500;2023-03-23T10:56:57;2.4;;;0.9;;
53674;SDS011;39574;50.534;8.500;2023-03-23T11:01:57;2.3;;;0.9;;
53674;SDS011;39574;50.534;8.500;2023-03-23T11:06:57;2.5;;;0.9;;
53674;SDS011;39574;50.534;8.500;2023-03-23T11:11:55;2.5;;;0.9;;
53674;SDS011;39574;50.534;8.500;2023-03-23T11:16:55;2.2;;;0.8;;
53674;SDS011;39574;50.534;8.500;2023-03-23T11:22:07;2.0;;;0.7;;
53674;SDS011;39574;50.534;8.500;2023-03-23T11:26:53;2.0;;;0.7;;
53674;SDS011;39574;50.534;8.500;2023-03-23T11:31:52;1.9;;;0.7;;
53674;SDS011;39574;50.534;8.500;2023-03-23T11:36:51;2.5;;;0.9;;
53674;SDS011;39574;50.534;8.500;2023-03-23T11:41:50;4.5;;;1.1;;
53674;SDS011;39574;50.534;8.500;2023-03-23T11:46:52;3.8;;;0.9;;
53674;SDS011;39574;50.534;8.500;2023-03-23T11:51:49;3.3;;;0.9;;
53674;SDS011;39574;50.534;8.500;2023-03-23T11:56:47;2.3;;;0.7;;
53674;SDS011;39574;50.534;8.500;2023-03-23T12:01:47;1.4;;;0.6;;
53674;SDS011;39574;50.534;8.500;2023-03-23T12:06:47;2.1;;;0.7;;
53674;SDS011;39574;50.534;8.500;2023-03-23T12:11:48;2.4;;;0.8;;
53674;SDS011;39574;50.534;8.500;2023-03-23T12:16:47;2.6;;;0.8;;
53674;SDS011;39574;50.534;8.500;2023-03-23T12:21:50;2.7;;;0.8;;
53674;SDS011;39574;50.534;8.500;2023-03-23T12:26:44;4.0;;;1.3;;
53674;SDS011;39574;50.534;8.500;2023-03-23T12:31:47;3.4;;;1.1;;
53674;SDS011;39574;50.534;8.500;2023-03-23T12:36:44;3.1;;;1.0;;
53674;SDS011;39574;50.534;8.500;2023-03-23T12:41:41;2.8;;;0.8;;
53674;SDS011;39574;50.534;8.500;2023-03-23T12:46:44;2.4;;;0.7;;
53674;SDS011;39574;50.534;8.500;2023-03-23T12:51:39;2.3;;;0.9;;
53674;SDS011;39574;50.534;8.500;2023-03-23T12:56:39;2.3;;;0.9;;
53674;SDS011;39574;50.534;8.500;2023-03-23T13:01:37;2.3;;;1.1;;
53674;SDS011;39574;50.534;8.500;2023-03-23T13:06:37;2.4;;;1.1;;
53674;SDS011;39574;50.534;8.500;2023-03-23T13:11:36;2.0;;;1.0;;
53674;SDS011;39574;50.534;8.500;2023-03-23T13:16:35;2.0;;;1.0;;
53674;SDS011;39574;50.534;8.500;2023-03-23T13:21:34;2.0;;;0.9;;
53674;SDS011;39574;50.534;8.500;2023-03-23T13:26:36;2.8;;;1.0;;
53674;SDS011;39574;50.534;8.500;2023-03-23T13:31:33;2.6;;;1.1;;
53674;SDS011;39574;50.534;8.500;2023-03-23T13:36:33;2.1;;;0.9;;
53674;SDS011;39574;50.534;8.500;2023-03-23T13:41:30;2.2;;;0.8;;
53674;SDS011;39574;50.534;8.500;2023-03-23T13:46:30;2.2;;;1.0;;
53674;SDS011;39574;50.534;8.500;2023-03-23T13:51:34;2.3;;;0.9;;
53674;SDS011;39574;50.534;8.500;2023-03-23T13:56:32;3.0;;;1.4;;
53674;SDS011;39574;50.534;8.500;2023-03-23T14:01:31;3.5;;;1.3;;
53674;SDS011;39574;50.534;8.500;2023-03-23T14:11:28;3.3;;;1.2;;
53674;SDS011;39574;50.534;8.500;2023-03-23T14:16:28;3.6;;;1.3;;
53674;SDS011;39574;50.534;8.500;2023-03-23T14:21:30;3.3;;;1.2;;
53674;SDS011;39574;50.534;8.500;2023-03-23T14:26:24;2.3;;;0.9;;
53674;SDS011;39574;50.534;8.500;2023-03-23T14:31:24;1.9;;;0.7;;
53674;SDS011;39574;50.534;8.500;2023-03-23T14:36:23;1.5;;;0.6;;
53674;SDS011;39574;50.534;8.500;2023-03-23T14:41:22;1.5;;;0.6;;
53674;SDS011;39574;50.534;8.500;2023-03-23T14:46:21;1.7;;;0.7;;
53674;SDS011;39574;50.534;8.500;2023-03-23T14:51:20;1.8;;;0.8;;
53674;SDS011;39574;50.534;8.500;2023-03-23T14:56:20;1.9;;;0.8;;
53674;SDS011;39574;50.534;8.500;2023-03-23T15:01:19;2.5;;;0.8;;
53674;SDS011;39574;50.534;8.500;2023-03-23T15:06:19;2.5;;;0.8;;
53674;SDS011;39574;50.534;8.500;2023-03-23T15:11:22;2.2;;;0.7;;
53674;SDS011;39574;50.534;8.500;2023-03-23T15:16:18;1.7;;;0.6;;
53674;SDS011;39574;50.534;8.500;2023-03-23T15:21:19;1.3;;;0.6;;
53674;SDS011;39574;50.534;8.500;2023-03-23T15:26:18;1.2;;;0.6;;
53674;SDS011;39574;50.534;8.500;2023-03-23T15:31:14;1.5;;;0.6;;
53674;SDS011;39574;50.534;8.500;2023-03-23T15:36:17;1.9;;;0.6;;
53674;SDS011;39574;50.534;8.500;2023-03-23T15:41:20;1.7;;;0.6;;
53674;SDS011;39574;50.534;8.500;2023-03-23T15:46:19;1.6;;;0.6;;
53674;SDS011;39574;50.534;8.500;2023-03-23T15:51:11;2.8;;;0.9;;
53674;SDS011;39574;50.534;8.500;2023-03-23T15:56:11;2.8;;;1.1;;
53674;SDS011;39574;50.534;8.500;2023-03-23T16:01:11;3.0;;;1.2;;
53674;SDS011;39574;50.534;8.500;2023-03-23T16:06:10;3.3;;;1.3;;
53674;SDS011;39574;50.534;8.500;2023-03-23T16:11:08;3.4;;;1.2;;
53674;SDS011;39574;50.534;8.500;2023-03-23T16:16:10;3.3;;;1.2;;
53674;SDS011;39574;50.534;8.500;2023-03-23T16:21:06;3.4;;;1.3;;
53674;SDS011;39574;50.534;8.500;2023-03-23T16:26:06;3.9;;;1.8;;
53674;SDS011;39574;50.534;8.500;2023-03-23T16:31:05;3.9;;;1.6;;
53674;SDS011;39574;50.534;8.500;2023-03-23T16:36:04;3.9;;;1.8;;
53674;SDS011;39574;50.534;8.500;2023-03-23T16:41:03;3.8;;;1.6;;
53674;SDS011;39574;50.534;8.500;2023-03-23T16:46:02;3.6;;;1.4;;
53674;SDS011;39574;50.534;8.500;2023-03-23T16:51:01;3.8;;;1.5;;
53674;SDS011;39574;50.534;8.500;2023-03-23T16:56:01;3.8;;;1.4;;
53674;SDS011;39574;50.534;8.500;2023-03-23T17:01:00;3.3;;;1.3;;
53674;SDS011;39574;50.534;8.500;2023-03-23T17:05:59;3.6;;;1.4;;
53674;SDS011;39574;50.534;8.500;2023-03-23T17:10:58;3.5;;;1.4;;
53674;SDS011;39574;50.534;8.500;2023-03-23T17:15:57;6.2;;;1.4;;
53674;SDS011;39574;50.534;8.500;2023-03-23T17:20:57;5.7;;;1.5;;
53674;SDS011;39574;50.534;8.500;2023-03-23T17:25:56;5.0;;;1.4;;
53674;SDS011;39574;50.534;8.500;2023-03-23T17:30:55;4.3;;;1.5;;
53674;SDS011;39574;50.534;8.500;2023-03-23T17:35:54;3.2;;;1.2;;
53674;SDS011;39574;50.534;8.500;2023-03-23T17:40:55;2.6;;;1.2;;
53674;SDS011;39574;50.534;8.500;2023-03-23T17:45:52;2.5;;;1.0;;
53674;SDS011;39574;50.534;8.500;2023-03-23T17:50:53;2.4;;;1.0;;
53674;SDS011;39574;50.534;8.500;2023-03-23T17:55:51;3.1;;;1.1;;
53674;SDS011;39574;50.534;8.500;2023-03-23T18:00:50;3.0;;;1.2;;
53674;SDS011;39574;50.534;8.500;2023-03-23T18:05:56;3.3;;;1.2;;
53674;SDS011;39574;50.534;8.500;2023-03-23T18:10:48;3.5;;;1.9;;
53674;SDS011;39574;50.534;8.500;2023-03-23T18:15:47;3.7;;;1.9;;
53674;SDS011;39574;50.534;8.500;2023-03-23T18:20:46;3.3;;;1.7;;
53674;SDS011;39574;50.534;8.500;2023-03-23T18:25:46;3.0;;;1.5;;
53674;SDS011;39574;50.534;8.500;2023-03-23T18:30:45;3.3;;;1.4;;
53674;SDS011;39574;50.534;8.500;2023-03-23T18:35:44;3.1;;;1.4;;
53674;SDS011;39574;50.534;8.500;2023-03-23T18:40:43;3.1;;;1.4;;
53674;SDS011;39574;50.534;8.500;2023-03-23T18:45:47;2.9;;;1.4;;
53674;SDS011;39574;50.534;8.500;2023-03-23T18:50:44;2.9;;;1.4;;
53674;SDS011;39574;50.534;8.500;2023-03-23T18:55:41;2.8;;;1.4;;
53674;SDS011;39574;50.534;8.500;2023-03-23T19:00:40;3.0;;;1.4;;
53674;SDS011;39574;50.534;8.500;2023-03-23T19:05:40;3.0;;;1.3;;
53674;SDS011;39574;50.534;8.500;2023-03-23T19:10:39;3.6;;;1.4;;
53674;SDS011;39574;50.534;8.500;2023-03-23T19:15:37;3.2;;;1.4;;
53674;SDS011;39574;50.534;8.500;2023-03-23T19:20:37;3.3;;;1.5;;
53674;SDS011;39574;50.534;8.500;2023-03-23T19:25:36;3.1;;;1.5;;
53674;SDS011;39574;50.534;8.500;2023-03-23T19:30:35;2.9;;;1.5;;
53674;SDS011;39574;50.534;8.500;2023-03-23T19:35:34;4.0;;;1.6;;
53674;SDS011;39574;50.534;8.500;2023-03-23T19:40:33;3.7;;;1.5;;
53674;SDS011;39574;50.534;8.500;2023-03-23T19:45:32;3.7;;;1.6;;
53674;SDS011;39574;50.534;8.500;2023-03-23T19:50:31;3.5;;;1.5;;
53674;SDS011;39574;50.534;8.500;2023-03-23T19:55:30;3.5;;;1.5;;
53674;SDS011;39574;50.534;8.500;2023-03-23T20:00:30;3.5;;;1.5;;
53674;SDS011;39574;50.534;8.500;2023-03-23T20:05:29;3.5;;;1.5;;
53674;SDS011;39574;50.534;8.500;2023-03-23T20:10:28;3.7;;;1.6;;
53674;SDS011;39574;50.534;8.500;2023-03-23T20:15:28;3.9;;;1.6;;
53674;SDS011;39574;50.534;8.500;2023-03-23T20:20:26;3.9;;;1.8;;
53674;SDS011;39574;50.534;8.500;2023-03-23T20:25:27;4.0;;;1.8;;
53674;SDS011;39574;50.534;8.500;2023-03-23T20:30:24;4.7;;;1.7;;
53674;SDS011;39574;50.534;8.500;2023-03-23T20:35:24;4.6;;;1.6;;
53674;SDS011;39574;50.534;8.500;2023-03-23T20:40:23;4.6;;;1.5;;
53674;SDS011;39574;50.534;8.500;2023-03-23T20:45:22;4.0;;;1.4;;
53674;SDS011;39574;50.534;8.500;2023-03-23T20:50:21;6.6;;;2.8;;
53674;SDS011;39574;50.534;8.500;2023-03-23T20:55:20;7.3;;;3.3;;
53674;SDS011;39574;50.534;8.500;2023-03-23T21:00:19;5.9;;;3.0;;
53674;SDS011;39574;50.534;8.500;2023-03-23T21:05:18;4.5;;;2.4;;
53674;SDS011;39574;50.534;8.500;2023-03-23T21:10:18;3.5;;;1.8;;
53674;SDS011;39574;50.534;8.500;2023-03-23T21:15:17;3.1;;;1.7;;
53674;SDS011;39574;50.534;8.500;2023-03-23T21:20:16;3.3;;;1.8;;
53674;SDS011;39574;50.534;8.500;2023-03-23T21:25:15;3.4;;;1.9;;
53674;SDS011;39574;50.534;8.500;2023-03-23T21:30:14;3.6;;;1.9;;
53674;SDS011;39574;50.534;8.500;2023-03-23T21:35:13;4.3;;;2.0;;
53674;SDS011;39574;50.534;8.500;2023-03-23T21:40:13;4.6;;;2.3;;
53674;SDS011;39574;50.534;8.500;2023-03-23T21:45:12;4.3;;;2.3;;
53674;SDS011;39574;50.534;8.500;2023-03-23T21:50:11;4.9;;;2.5;;
53674;SDS011;39574;50.534;8.500;2023-03-23T21:55:10;5.0;;;2.5;;
53674;SDS011;39574;50.534;8.500;2023-03-23T22:00:10;4.5;;;2.5;;
53674;SDS011;39574;50.534;8.500;2023-03-23T22:05:10;4.9;;;2.6;;
53674;SDS011;39574;50.534;8.500;2023-03-23T22:10:10;5.0;;;2.8;;
53674;SDS011;39574;50.534;8.500;2023-03-23T22:15:07;4.9;;;3.0;;
53674;SDS011;39574;50.534;8.500;2023-03-23T22:20:07;5.0;;;3.1;;
53674;SDS011;39574;50.534;8.500;2023-03-23T22:25:05;5.6;;;3.3;;
53674;SDS011;39574;50.534;8.500;2023-03-23T22:30:04;9.0;;;5.7;;
53674;SDS011;39574;50.534;8.500;2023-03-23T22:35:03;8.0;;;5.2;;
53674;SDS011;39574;50.534;8.500;2023-03-23T22:40:02;6.8;;;4.5;;
53674;SDS011;39574;50.534;8.500;2023-03-23T22:45:02;6.0;;;4.0;;
53674;SDS011;39574;50.534;8.500;2023-03-23T22:50:00;5.0;;;3.2;;
53674;SDS011;39574;50.534;8.500;2023-03-23T22:55:00;5.1;;;3.0;;
53674;SDS011;39574;50.534;8.500;2023-03-23T22:59:59;5.0;;;2.9;;
53674;SDS011;39574;50.534;8.500;2023-03-23T23:04:58;4.9;;;2.7;;
53674;SDS011;39574;50.534;8.500;2023-03-23T23:09:57;5.0;;;2.7;;
53674;SDS011;39574;50.534;8.500;2023-03-23T23:14:56;5.5;;;2.7;;
53674;SDS011;39574;50.534;8.500;2023-03-23T23:19:55;4.9;;;2.7;;
53674;SDS011;39574;50.534;8.500;2023-03-23T23:24:54;5.0;;;2.7;;
53674;SDS011;39574;50.534;8.500;2023-03-23T23:29:54;4.8;;;2.8;;
53674;SDS011;39574;50.534;8.500;2023-03-23T23:34:53;5.1;;;2.7;;
53674;SDS011;39574;50.534;8.500;2023-03-23T23:39:52;5.5;;;2.9;;
53674;SDS011;39574;50.534;8.500;2023-03-23T23:44:52;4.9;;;2.6;;
53674;SDS011;39574;50.534;8.500;2023-03-23T23:49:50;4.8;;;2.5;;
53674;SDS011;39574;50.534;8.500;2023-03-23T23:54:49;4.9;;;2.5;;
53674;SDS011;39574;50.534;8.500;2023-03-23T23:59:48;5.0;;;2.6;;
